createdAt,value
2019-05-18T00:01:54.767Z,57.03
2019-05-18T00:04:21.599Z,57.25
2019-05-18T00:06:48.309Z,57.28
2019-05-18T00:09:15.044Z,57.39
2019-05-18T00:11:41.863Z,57.46
2019-05-18T00:14:08.590Z,57.41
2019-05-18T00:16:35.328Z,57.47
2019-05-18T00:19:02.098Z,57.47
2019-05-18T00:21:28.798Z,57.41
2019-05-18T00:23:55.601Z,57.27
2019-05-18T00:26:22.452Z,57.38
2019-05-18T00:28:49.202Z,57.24
2019-05-18T00:31:15.962Z,57.31
2019-05-18T00:33:42.803Z,57.37
2019-05-18T00:36:09.532Z,57.49
2019-05-18T00:38:36.375Z,57.50
2019-05-18T00:41:03.180Z,57.58
2019-05-18T00:43:29.996Z,57.79
2019-05-18T00:45:56.820Z,57.73
2019-05-18T00:48:23.591Z,57.65
2019-05-18T00:50:50.335Z,57.72
2019-05-18T00:53:17.265Z,57.53
2019-05-18T00:55:44.016Z,57.50
2019-05-18T00:58:10.852Z,57.48
2019-05-18T01:00:37.581Z,57.50
2019-05-18T01:03:04.390Z,57.46
2019-05-18T01:05:31.132Z,57.50
2019-05-18T01:07:57.944Z,57.50
2019-05-18T01:10:24.747Z,57.52
2019-05-18T01:12:51.532Z,57.62
2019-05-18T01:15:18.609Z,57.72
2019-05-18T01:17:57.018Z,57.62
2019-05-18T01:20:14.165Z,57.54
2019-05-18T01:22:40.950Z,57.53
2019-05-18T01:25:07.898Z,57.60
2019-05-18T01:27:34.847Z,57.72
2019-05-18T01:30:03.316Z,57.79
2019-05-18T01:32:30.054Z,57.49
2019-05-18T01:34:56.884Z,57.24
2019-05-18T01:37:23.620Z,57.17
2019-05-18T01:39:50.418Z,57.29
2019-05-18T01:42:17.181Z,57.37
2019-05-18T01:44:43.981Z,57.20
2019-05-18T01:47:10.731Z,57.39
2019-05-18T01:49:37.539Z,57.42
2019-05-18T01:52:04.306Z,57.32
2019-05-18T01:54:31.127Z,57.35
2019-05-18T01:56:57.878Z,57.44
2019-05-18T01:59:24.670Z,57.61
2019-05-18T02:01:51.460Z,57.84
2019-05-18T02:04:18.251Z,57.81
2019-05-18T02:06:45.071Z,57.78
2019-05-18T02:09:11.816Z,58.03
2019-05-18T02:11:38.541Z,57.97
2019-05-18T02:14:05.288Z,58.35
2019-05-18T02:16:32.029Z,58.41
2019-05-18T02:18:58.812Z,58.43
2019-05-18T02:21:25.559Z,58.49
2019-05-18T02:23:52.299Z,58.70
2019-05-18T02:26:19.191Z,58.76
2019-05-18T02:28:45.989Z,58.87
2019-05-18T02:31:12.696Z,58.71
2019-05-18T02:33:39.511Z,58.79
2019-05-18T02:36:06.459Z,58.90
2019-05-18T02:38:33.139Z,59.06
2019-05-18T02:41:00.029Z,59.05
2019-05-18T02:43:26.774Z,59.06
2019-05-18T02:45:53.540Z,59.01
2019-05-18T02:48:20.296Z,58.57
2019-05-18T02:50:47.066Z,58.53
2019-05-18T02:53:13.829Z,58.54
2019-05-18T02:55:40.590Z,58.57
2019-05-18T02:58:07.312Z,58.77
2019-05-18T03:00:34.036Z,58.96
2019-05-18T03:03:00.977Z,59.04
2019-05-18T03:05:27.886Z,59.20
2019-05-18T03:07:54.633Z,59.10
2019-05-18T03:10:22.037Z,59.15
2019-05-18T03:12:48.849Z,59.29
2019-05-18T03:15:15.948Z,59.33
2019-05-18T03:17:42.690Z,59.19
2019-05-18T03:20:09.676Z,59.14
2019-05-18T03:22:36.386Z,59.25
2019-05-18T03:25:05.454Z,59.32
2019-05-18T03:27:32.160Z,59.38
2019-05-18T03:29:58.963Z,59.56
2019-05-18T03:32:25.773Z,59.74
2019-05-18T03:34:52.487Z,59.76
2019-05-18T03:37:19.274Z,59.79
2019-05-18T03:39:46.072Z,59.74
2019-05-18T03:42:12.891Z,60.02
2019-05-18T03:44:39.708Z,60.12
2019-05-18T03:47:06.500Z,60.14
2019-05-18T03:49:33.274Z,60.11
2019-05-18T03:52:00.020Z,60.00
2019-05-18T03:54:26.749Z,59.96
2019-05-18T03:56:53.552Z,60.00
2019-05-18T03:59:20.253Z,60.17
2019-05-18T04:01:47.012Z,60.52
2019-05-18T04:04:13.803Z,60.45
2019-05-18T04:06:40.681Z,60.49
2019-05-18T04:09:07.438Z,60.54
2019-05-18T04:11:34.168Z,60.55
2019-05-18T04:14:00.950Z,60.47
2019-05-18T04:16:27.691Z,60.62
2019-05-18T04:18:54.439Z,61.13
2019-05-18T04:21:21.184Z,60.67
2019-05-18T04:23:47.966Z,60.51
2019-05-18T04:26:14.675Z,60.35
2019-05-18T04:28:41.444Z,60.43
2019-05-18T04:31:08.200Z,60.06
2019-05-18T04:33:34.993Z,60.17
2019-05-18T04:36:01.709Z,60.34
2019-05-18T04:38:28.506Z,60.39
2019-05-18T04:40:55.258Z,60.44
2019-05-18T04:43:22.043Z,60.24
2019-05-18T04:45:48.762Z,60.35
2019-05-18T04:48:15.548Z,60.43
2019-05-18T04:50:42.254Z,60.36
2019-05-18T04:53:09.073Z,60.54
2019-05-18T04:55:35.790Z,60.81
2019-05-18T04:58:02.700Z,60.77
2019-05-18T05:00:29.448Z,60.40
2019-05-18T05:02:56.175Z,60.22
2019-05-18T05:05:22.932Z,60.17
2019-05-18T05:07:49.703Z,59.88
2019-05-18T05:10:16.470Z,60.36
2019-05-18T05:12:43.182Z,60.72
2019-05-18T05:15:09.959Z,60.59
2019-05-18T05:17:36.672Z,60.57
2019-05-18T05:20:18.697Z,60.62
2019-05-18T05:22:34.888Z,60.39
2019-05-18T05:25:01.714Z,60.24
2019-05-18T05:27:28.427Z,60.34
2019-05-18T05:29:55.232Z,60.30
2019-05-18T05:32:21.949Z,60.12
2019-05-18T05:34:48.673Z,60.44
2019-05-18T05:37:15.467Z,60.39
2019-05-18T05:39:42.233Z,60.46
2019-05-18T05:42:09.007Z,60.35
2019-05-18T05:44:35.727Z,60.51
2019-05-18T05:47:02.574Z,60.16
2019-05-18T05:49:29.300Z,59.70
2019-05-18T05:51:56.067Z,59.23
2019-05-18T05:54:22.772Z,58.89
2019-05-18T05:56:49.549Z,59.32
2019-05-18T05:59:16.306Z,59.39
2019-05-18T06:01:43.078Z,59.31
2019-05-18T06:04:09.778Z,58.86
2019-05-18T06:06:36.597Z,58.65
2019-05-18T06:09:05.555Z,58.65
2019-05-18T06:11:32.350Z,58.75
2019-05-18T06:13:59.100Z,58.87
2019-05-18T06:16:25.905Z,59.23
2019-05-18T06:18:52.631Z,58.92
2019-05-18T06:21:19.438Z,58.92
2019-05-18T06:23:46.159Z,59.00
2019-05-18T06:26:12.904Z,58.76
2019-05-18T06:28:39.651Z,58.41
2019-05-18T06:31:06.387Z,58.00
2019-05-18T06:33:33.177Z,57.66
2019-05-18T06:35:59.915Z,57.48
2019-05-18T06:38:26.733Z,57.10
2019-05-18T06:40:53.457Z,56.74
2019-05-18T06:43:20.204Z,56.45
2019-05-18T06:45:46.979Z,56.07
2019-05-18T06:48:13.741Z,55.86
2019-05-18T06:50:41.598Z,55.84
2019-05-18T06:53:08.369Z,55.85
2019-05-18T06:55:35.421Z,56.00
2019-05-18T06:58:02.544Z,55.74
2019-05-18T07:00:29.367Z,55.72
2019-05-18T07:02:56.098Z,55.47
2019-05-18T07:05:22.840Z,55.38
2019-05-18T07:07:49.739Z,55.28
2019-05-18T07:10:16.533Z,55.30
2019-05-18T07:12:43.271Z,55.24
2019-05-18T07:15:10.512Z,55.11
2019-05-18T07:17:37.255Z,55.02
2019-05-18T07:20:04.788Z,55.04
2019-05-18T07:22:31.595Z,55.13
2019-05-18T07:24:58.314Z,55.03
2019-05-18T07:27:25.077Z,55.47
2019-05-18T07:29:51.845Z,54.90
2019-05-18T07:32:18.594Z,55.24
2019-05-18T07:34:45.349Z,55.17
2019-05-18T07:37:12.228Z,56.13
2019-05-18T07:39:38.962Z,56.11
2019-05-18T07:42:05.691Z,55.80
2019-05-18T07:44:32.605Z,55.62
2019-05-18T07:46:59.325Z,55.96
2019-05-18T07:49:26.096Z,55.60
2019-05-18T07:51:53.013Z,56.18
2019-05-18T07:54:19.773Z,55.89
2019-05-18T07:56:46.469Z,56.44
2019-05-18T07:59:13.311Z,55.99
2019-05-18T08:01:40.021Z,55.84
2019-05-18T08:04:06.791Z,56.37
2019-05-18T08:06:33.536Z,56.75
2019-05-18T08:09:00.278Z,56.81
2019-05-18T08:11:27.076Z,56.97
2019-05-18T08:13:53.889Z,57.20
2019-05-18T08:16:20.625Z,57.32
2019-05-18T08:18:47.332Z,57.11
2019-05-18T08:21:14.151Z,57.33
2019-05-18T08:23:40.909Z,57.28
2019-05-18T08:26:07.667Z,56.21
2019-05-18T08:28:34.416Z,56.12
2019-05-18T08:31:01.154Z,56.29
2019-05-18T08:33:27.892Z,56.03
2019-05-18T08:35:54.718Z,56.38
2019-05-18T08:38:21.468Z,56.25
2019-05-18T08:40:48.213Z,56.15
2019-05-18T08:43:15.001Z,56.04
2019-05-18T08:45:41.738Z,55.78
2019-05-18T08:48:08.585Z,55.74
2019-05-18T08:50:35.391Z,54.95
2019-05-18T08:53:02.110Z,56.99
2019-05-18T08:55:28.861Z,55.36
2019-05-18T08:57:55.649Z,55.25
2019-05-18T09:00:22.499Z,55.55
2019-05-18T09:02:49.234Z,55.33
2019-05-18T09:05:17.932Z,54.68
2019-05-18T09:07:44.627Z,54.85
2019-05-18T09:10:11.657Z,54.47
2019-05-18T09:12:38.598Z,54.36
2019-05-18T09:15:08.138Z,53.80
2019-05-18T09:17:34.878Z,53.93
2019-05-18T09:20:04.431Z,54.38
2019-05-18T09:22:31.165Z,54.11
2019-05-18T09:24:57.897Z,54.44
2019-05-18T09:27:24.668Z,54.70
2019-05-18T09:29:51.409Z,54.48
2019-05-18T09:32:18.130Z,53.94
2019-05-18T09:34:44.949Z,53.72
2019-05-18T09:37:11.988Z,53.97
2019-05-18T09:39:38.728Z,54.06
2019-05-18T09:42:06.466Z,54.47
2019-05-18T09:44:33.283Z,54.34
2019-05-18T09:46:59.991Z,53.95
2019-05-18T09:49:27.138Z,54.10
2019-05-18T09:51:53.873Z,53.88
2019-05-18T09:54:20.596Z,55.06
2019-05-18T09:56:47.354Z,54.73
2019-05-18T09:59:14.084Z,54.34
2019-05-18T10:01:40.842Z,54.17
2019-05-18T10:04:07.625Z,54.41
2019-05-18T10:06:34.359Z,54.20
2019-05-18T10:09:01.127Z,53.80
2019-05-18T10:11:27.998Z,53.75
2019-05-18T10:13:54.821Z,53.80
2019-05-18T10:16:21.576Z,53.81
2019-05-18T10:18:48.606Z,53.97
2019-05-18T10:21:16.052Z,53.97
2019-05-18T10:23:42.790Z,53.71
2019-05-18T10:26:09.588Z,53.36
2019-05-18T10:28:37.626Z,53.33
2019-05-18T10:31:04.420Z,53.11
2019-05-18T10:33:31.249Z,52.18
2019-05-18T10:35:58.001Z,52.48
2019-05-18T10:38:24.767Z,52.48
2019-05-18T10:40:51.603Z,51.11
2019-05-18T10:43:18.424Z,51.39
2019-05-18T10:45:45.481Z,51.74
2019-05-18T10:48:12.374Z,52.00
2019-05-18T10:50:39.399Z,51.62
2019-05-18T10:53:06.137Z,51.87
2019-05-18T10:55:32.999Z,52.50
2019-05-18T10:58:00.225Z,52.84
2019-05-18T11:00:26.978Z,52.85
2019-05-18T11:02:53.812Z,51.40
2019-05-18T11:05:20.880Z,51.29
2019-05-18T11:07:47.625Z,51.45
2019-05-18T11:10:16.830Z,50.79
2019-05-18T11:12:43.643Z,51.60
2019-05-18T11:15:13.648Z,51.54
2019-05-18T11:17:40.470Z,51.92
2019-05-18T11:20:08.906Z,52.14
2019-05-18T11:22:35.635Z,52.01
2019-05-18T11:25:04.143Z,53.21
2019-05-18T11:27:31.024Z,53.19
2019-05-18T11:29:57.758Z,52.99
2019-05-18T11:32:24.537Z,53.14
2019-05-18T11:34:51.246Z,53.20
2019-05-18T11:37:18.026Z,53.72
2019-05-18T11:39:44.815Z,53.74
2019-05-18T11:42:11.556Z,54.01
2019-05-18T11:44:38.286Z,53.58
2019-05-18T11:47:05.112Z,53.51
2019-05-18T11:49:31.856Z,53.66
2019-05-18T11:51:58.602Z,53.62
2019-05-18T11:54:25.403Z,53.55
2019-05-18T11:56:52.158Z,53.34
2019-05-18T11:59:18.868Z,52.57
2019-05-18T12:01:45.665Z,52.63
2019-05-18T12:04:12.393Z,53.12
2019-05-18T12:06:39.146Z,53.07
2019-05-18T12:09:06.054Z,51.67
2019-05-18T12:11:32.777Z,51.40
2019-05-18T12:13:59.568Z,50.21
2019-05-18T12:16:26.457Z,50.18
2019-05-18T12:18:53.319Z,49.74
2019-05-18T12:21:20.051Z,49.46
2019-05-18T12:23:47.275Z,48.84
2019-05-18T12:26:14.002Z,49.43
2019-05-18T12:28:40.788Z,49.00
2019-05-18T12:31:07.715Z,47.65
2019-05-18T12:33:34.472Z,48.17
2019-05-18T12:36:01.208Z,48.57
2019-05-18T12:38:28.604Z,48.61
2019-05-18T12:40:55.348Z,47.57
2019-05-18T12:43:23.446Z,47.84
2019-05-18T12:45:50.199Z,48.07
2019-05-18T12:48:16.963Z,48.19
2019-05-18T12:50:43.722Z,48.22
2019-05-18T12:53:10.507Z,48.24
2019-05-18T12:55:37.234Z,48.19
2019-05-18T12:58:03.979Z,48.64
2019-05-18T13:00:31.287Z,49.58
2019-05-18T13:02:58.023Z,49.52
2019-05-18T13:05:24.773Z,49.58
2019-05-18T13:07:51.655Z,49.73
2019-05-18T13:10:19.391Z,50.25
2019-05-18T13:12:46.112Z,50.43
2019-05-18T13:15:15.566Z,50.43
2019-05-18T13:17:42.321Z,50.92
2019-05-18T13:20:11.660Z,50.86
2019-05-18T13:22:38.465Z,50.98
2019-05-18T13:25:06.595Z,51.79
2019-05-18T13:27:39.265Z,51.60
2019-05-18T13:30:03.290Z,51.97
2019-05-18T13:32:29.999Z,52.50
2019-05-18T13:34:56.791Z,53.64
2019-05-18T13:37:23.735Z,53.84
2019-05-18T13:39:50.833Z,54.49
2019-05-18T13:42:17.573Z,53.96
2019-05-18T13:44:44.365Z,52.93
2019-05-18T13:47:11.098Z,52.63
2019-05-18T13:49:37.835Z,53.01
2019-05-18T13:52:04.744Z,52.77
2019-05-18T13:54:31.490Z,52.79
2019-05-18T13:56:58.236Z,52.63
2019-05-18T13:59:25.062Z,52.70
2019-05-18T14:01:54.987Z,51.96
2019-05-18T14:04:20.329Z,52.17
2019-05-18T14:06:47.240Z,51.80
2019-05-18T14:09:13.985Z,51.97
2019-05-18T14:11:52.918Z,52.01
2019-05-18T14:14:19.662Z,51.84
2019-05-18T14:16:46.439Z,52.30
2019-05-18T14:19:13.291Z,52.46
2019-05-18T14:21:40.004Z,51.60
2019-05-18T14:24:06.729Z,51.43
2019-05-18T14:26:33.678Z,51.64
2019-05-18T14:29:00.372Z,50.84
2019-05-18T14:31:27.130Z,50.93
2019-05-18T14:33:53.899Z,50.57
2019-05-18T14:36:20.650Z,50.57
2019-05-18T14:38:47.391Z,50.41
2019-05-18T14:41:14.208Z,50.79
2019-05-18T14:44:00.660Z,50.77
2019-05-18T14:46:28.432Z,50.45
2019-05-18T14:48:55.162Z,50.16
2019-05-18T14:51:22.244Z,51.05
2019-05-18T14:53:49.075Z,52.12
2019-05-18T14:56:15.849Z,52.25
2019-05-18T14:58:42.605Z,52.60
2019-05-18T15:01:09.763Z,52.45
2019-05-18T15:03:36.585Z,52.50
2019-05-18T15:06:03.412Z,51.88
2019-05-18T15:08:30.372Z,51.53
2019-05-18T15:10:57.109Z,51.83
2019-05-18T15:13:23.855Z,51.91
2019-05-18T15:15:50.809Z,51.44
2019-05-18T15:18:17.546Z,50.85
2019-05-18T15:20:44.302Z,50.42
2019-05-18T15:23:11.182Z,50.27
2019-05-18T15:25:50.278Z,50.87
2019-05-18T15:28:06.463Z,50.59
2019-05-18T15:30:33.259Z,50.14
2019-05-18T15:33:00.395Z,49.87
2019-05-18T15:35:27.112Z,50.13
2019-05-18T15:37:53.907Z,50.04
2019-05-18T15:40:20.611Z,50.34
2019-05-18T15:42:47.344Z,50.52
2019-05-18T15:45:14.372Z,50.49
2019-05-18T15:47:41.104Z,50.83
2019-05-18T15:50:09.156Z,50.85
2019-05-18T15:52:35.938Z,50.71
2019-05-18T15:55:05.926Z,51.28
2019-05-18T15:57:32.728Z,52.50
2019-05-18T16:00:00.561Z,52.57
2019-05-18T16:02:27.279Z,53.18
2019-05-18T16:04:54.007Z,53.42
2019-05-18T16:07:20.813Z,53.82
2019-05-18T16:09:47.576Z,53.77
2019-05-18T16:12:14.303Z,53.78
2019-05-18T16:14:41.224Z,53.63
2019-05-18T16:17:08.102Z,53.42
2019-05-18T16:19:34.838Z,53.26
2019-05-18T16:22:01.942Z,53.29
2019-05-18T16:24:29.230Z,53.03
2019-05-18T16:26:56.042Z,53.27
2019-05-18T16:29:22.823Z,53.44
2019-05-18T16:31:52.603Z,53.98
2019-05-18T16:34:19.547Z,54.28
2019-05-18T16:36:46.436Z,54.76
2019-05-18T16:39:13.191Z,55.03
2019-05-18T16:41:39.890Z,55.14
2019-05-18T16:44:06.779Z,55.26
2019-05-18T16:46:33.527Z,55.65
2019-05-18T16:49:00.241Z,56.01
2019-05-18T16:51:27.021Z,56.40
2019-05-18T16:53:53.772Z,56.35
2019-05-18T16:56:20.513Z,56.35
2019-05-18T16:58:47.412Z,56.38
2019-05-18T17:01:14.225Z,56.49
2019-05-18T17:03:40.940Z,56.39
2019-05-18T17:06:07.740Z,56.19
2019-05-18T17:08:34.476Z,56.26
2019-05-18T17:11:01.234Z,56.77
2019-05-18T17:13:28.052Z,57.10
2019-05-18T17:15:54.849Z,57.00
2019-05-18T17:18:21.618Z,57.18
2019-05-18T17:20:48.403Z,57.46
2019-05-18T17:23:15.136Z,57.85
2019-05-18T17:25:41.876Z,58.37
2019-05-18T17:28:08.748Z,58.26
2019-05-18T17:30:35.487Z,58.38
2019-05-18T17:33:02.226Z,58.67
2019-05-18T17:35:30.262Z,59.14
2019-05-18T17:37:57.027Z,59.44
2019-05-18T17:40:23.746Z,59.79
2019-05-18T17:42:50.575Z,59.96
2019-05-18T17:45:17.339Z,59.81
2019-05-18T17:47:44.064Z,60.13
2019-05-18T17:50:11.788Z,60.53
2019-05-18T17:52:38.519Z,60.66
2019-05-18T17:55:06.753Z,60.71
2019-05-18T17:57:33.649Z,60.93
2019-05-18T18:00:00.408Z,61.21
2019-05-18T18:02:27.238Z,61.54
2019-05-18T18:04:54.364Z,61.85
2019-05-18T18:07:21.232Z,62.06
2019-05-18T18:09:47.967Z,62.35
2019-05-18T18:12:14.803Z,62.67
2019-05-18T18:14:43.453Z,62.59
2019-05-18T18:17:10.190Z,62.53
2019-05-18T18:19:37.037Z,61.96
2019-05-18T18:22:03.769Z,61.67
2019-05-18T18:24:30.479Z,62.16
2019-05-18T18:26:57.268Z,61.84
2019-05-18T18:29:24.017Z,61.93
2019-05-18T18:31:50.731Z,61.95
2019-05-18T18:34:17.628Z,62.03
2019-05-18T18:36:44.385Z,62.34
2019-05-18T18:39:11.113Z,62.57
2019-05-18T18:41:37.927Z,62.80
2019-05-18T18:44:04.647Z,62.93
2019-05-18T18:46:31.400Z,62.74
2019-05-18T18:48:58.174Z,62.78
2019-05-18T18:51:24.953Z,62.85
2019-05-18T18:53:51.862Z,62.75
2019-05-18T18:56:18.861Z,62.78
2019-05-18T18:58:45.673Z,63.09
2019-05-18T19:01:12.402Z,63.31
2019-05-18T19:03:39.308Z,63.43
2019-05-18T19:06:06.105Z,63.21
2019-05-18T19:08:32.837Z,63.25
2019-05-18T19:10:59.649Z,63.52
2019-05-18T19:13:26.387Z,63.63
2019-05-18T19:15:53.137Z,63.61
2019-05-18T19:18:19.991Z,63.50
2019-05-18T19:20:46.735Z,63.79
2019-05-18T19:23:13.476Z,63.78
2019-05-18T19:25:40.356Z,63.76
2019-05-18T19:28:07.124Z,63.76
2019-05-18T19:30:33.837Z,63.84
2019-05-18T19:33:00.707Z,63.54
2019-05-18T19:35:27.455Z,63.94
2019-05-18T19:37:54.172Z,64.33
2019-05-18T19:40:21.650Z,64.53
2019-05-18T19:42:48.399Z,64.35
2019-05-18T19:45:15.214Z,64.03
2019-05-18T19:47:42.003Z,63.89
2019-05-18T19:50:10.756Z,64.11
2019-05-18T19:52:37.566Z,64.17
2019-05-18T19:55:05.575Z,63.63
2019-05-18T19:57:32.292Z,63.59
2019-05-18T19:59:59.013Z,63.09
2019-05-18T20:02:25.883Z,62.95
2019-05-18T20:05:06.306Z,62.95
2019-05-18T20:07:21.187Z,63.09
2019-05-18T20:09:47.927Z,63.59
2019-05-18T20:12:14.705Z,63.54
2019-05-18T20:14:41.519Z,63.67
2019-05-18T20:17:08.337Z,63.71
2019-05-18T20:19:39.126Z,64.07
2019-05-18T20:22:03.641Z,64.20
2019-05-18T20:24:30.429Z,64.29
2019-05-18T20:26:57.162Z,64.47
2019-05-18T20:29:23.868Z,64.67
2019-05-18T20:31:50.644Z,64.74
2019-05-18T20:34:17.392Z,64.73
2019-05-18T20:36:44.130Z,64.73
2019-05-18T20:39:10.901Z,64.85
2019-05-18T20:41:37.650Z,64.74
2019-05-18T20:44:04.405Z,64.82
2019-05-18T20:46:31.192Z,64.86
2019-05-18T20:48:57.951Z,65.02
2019-05-18T20:51:24.694Z,65.20
2019-05-18T20:53:51.587Z,65.10
2019-05-18T20:56:18.317Z,65.06
2019-05-18T20:58:45.044Z,64.92
2019-05-18T21:01:11.862Z,65.01
2019-05-18T21:03:38.601Z,65.34
2019-05-18T21:06:05.362Z,65.32
2019-05-18T21:08:32.172Z,65.40
2019-05-18T21:10:58.897Z,65.41
2019-05-18T21:13:25.655Z,65.59
2019-05-18T21:15:52.543Z,65.59
2019-05-18T21:18:19.301Z,65.79
2019-05-18T21:20:46.057Z,65.71
2019-05-18T21:23:12.893Z,65.61
2019-05-18T21:25:39.609Z,65.53
2019-05-18T21:28:06.348Z,65.57
2019-05-18T21:30:33.234Z,65.48
2019-05-18T21:32:59.988Z,65.56
2019-05-18T21:35:26.688Z,65.56
2019-05-18T21:37:53.451Z,65.65
2019-05-18T21:40:20.224Z,65.61
2019-05-18T21:42:46.969Z,65.62
2019-05-18T21:45:13.860Z,65.84
2019-05-18T21:47:40.621Z,65.92
2019-05-18T21:50:07.930Z,65.96
2019-05-18T21:52:34.714Z,65.93
2019-05-18T21:55:01.483Z,65.98
2019-05-18T21:57:28.196Z,66.07
2019-05-18T21:59:54.981Z,65.96
2019-05-18T22:02:21.733Z,65.75
2019-05-18T22:04:48.474Z,65.72
2019-05-18T22:07:15.270Z,65.70
2019-05-18T22:09:42.011Z,65.71
2019-05-18T22:12:08.731Z,65.68
2019-05-18T22:14:35.610Z,65.93
2019-05-18T22:17:02.336Z,65.91
2019-05-18T22:19:29.128Z,66.00
2019-05-18T22:21:55.927Z,65.95
2019-05-18T22:24:22.641Z,66.10
2019-05-18T22:26:49.389Z,65.96
2019-05-18T22:29:16.186Z,65.94
2019-05-18T22:31:42.903Z,66.06
2019-05-18T22:34:09.631Z,66.23
2019-05-18T22:36:36.549Z,66.30
2019-05-18T22:39:05.676Z,66.16
2019-05-18T22:41:32.821Z,66.22
2019-05-18T22:43:59.615Z,66.26
2019-05-18T22:46:26.339Z,66.18
2019-05-18T22:48:53.065Z,66.06
2019-05-18T22:51:19.850Z,66.03
2019-05-18T22:53:46.731Z,66.07
2019-05-18T22:56:13.413Z,66.07
2019-05-18T22:58:40.304Z,65.83
2019-05-18T23:01:07.031Z,65.70
2019-05-18T23:03:33.783Z,65.62
2019-05-18T23:06:00.603Z,65.67
2019-05-18T23:08:27.373Z,65.84
2019-05-18T23:10:54.113Z,65.93
2019-05-18T23:13:20.971Z,65.88
2019-05-18T23:15:47.708Z,65.82
2019-05-18T23:18:14.457Z,65.78
2019-05-18T23:20:41.382Z,65.69
2019-05-18T23:23:08.117Z,65.83
2019-05-18T23:25:34.883Z,66.19
2019-05-18T23:28:01.684Z,66.34
2019-05-18T23:30:28.403Z,66.22
2019-05-18T23:32:55.156Z,66.07
2019-05-18T23:35:21.958Z,66.01
2019-05-18T23:37:48.685Z,66.09
2019-05-18T23:40:16.123Z,66.15
2019-05-18T23:42:43.000Z,66.12
2019-05-18T23:45:09.866Z,66.09
2019-05-18T23:47:36.599Z,66.04
2019-05-18T23:50:04.559Z,66.00
2019-05-18T23:52:31.336Z,65.87
2019-05-18T23:54:58.043Z,65.67
2019-05-18T23:57:24.852Z,65.51
2019-05-18T23:59:51.569Z,65.54
